sensor_id;sensor_type;location;lat;lon;timestamp;pressure;altitude;pressure_sealevel;temperature;humidity
68654;BME280;55636;51.108;13.622;2022-10-16T00:00:03;100091.16;;;14.05;68.68
68654;BME280;55636;51.108;13.622;2022-10-16T00:01:11;100091.16;;;14.05;68.92
68654;BME280;55636;51.108;13.622;2022-10-16T00:02:14;100091.16;;;14.05;68.74
68654;BME280;55636;51.108;13.622;2022-10-16T00:03:16;100097.56;;;14.05;68.51
68654;BME280;55636;51.108;13.622;2022-10-16T00:04:18;100095.59;;;14.06;68.88
68654;BME280;55636;51.108;13.622;2022-10-16T00:05:21;100094.78;;;14.05;68.98
68654;BME280;55636;51.108;13.622;2022-10-16T00:06:24;100088.69;;;14.03;68.96
68654;BME280;55636;51.108;13.622;2022-10-16T00:07:27;100097.56;;;14.05;68.83
68654;BME280;55636;51.108;13.622;2022-10-16T00:08:30;100086.47;;;14.05;68.81
68654;BME280;55636;51.108;13.622;2022-10-16T00:09:32;100094.25;;;14.03;68.85
68654;BME280;55636;51.108;13.622;2022-10-16T00:10:35;100097.56;;;14.05;68.48
68654;BME280;55636;51.108;13.622;2022-10-16T00:11:39;100086.47;;;14.05;68.83
68654;BME280;55636;51.108;13.622;2022-10-16T00:12:41;100094.78;;;14.05;68.62
68654;BME280;55636;51.108;13.622;2022-10-16T00:13:45;100096.72;;;14.05;68.74
68654;BME280;55636;51.108;13.622;2022-10-16T00:14:48;100095.09;;;14.04;68.93
68654;BME280;55636;51.108;13.622;2022-10-16T00:15:50;100104.22;;;14.04;68.86
68654;BME280;55636;51.108;13.622;2022-10-16T00:16:53;100104.22;;;14.04;68.77
68654;BME280;55636;51.108;13.622;2022-10-16T00:17:57;100112.56;;;14.04;68.83
68654;BME280;55636;51.108;13.622;2022-10-16T00:19:00;100107.00;;;14.04;68.67
68654;BME280;55636;51.108;13.622;2022-10-16T00:20:02;100121.44;;;14.06;68.48
68654;BME280;55636;51.108;13.622;2022-10-16T00:21:08;100112.56;;;14.04;68.66
68654;BME280;55636;51.108;13.622;2022-10-16T00:22:10;100114.53;;;14.04;69.04
68654;BME280;55636;51.108;13.622;2022-10-16T00:23:13;100115.34;;;14.04;68.96
68654;BME280;55636;51.108;13.622;2022-10-16T00:24:21;100113.69;;;14.03;68.71
68654;BME280;55636;51.108;13.622;2022-10-16T00:25:24;100105.34;;;14.03;68.98
68654;BME280;55636;51.108;13.622;2022-10-16T00:26:29;100111.19;;;14.02;68.90
68654;BME280;55636;51.108;13.622;2022-10-16T00:27:35;100110.09;;;14.03;68.99
68654;BME280;55636;51.108;13.622;2022-10-16T00:28:37;100112.00;;;14.02;68.90
68654;BME280;55636;51.108;13.622;2022-10-16T00:29:40;100110.38;;;14.01;68.83
68654;BME280;55636;51.108;13.622;2022-10-16T00:30:42;100113.16;;;14.01;69.24
68654;BME280;55636;51.108;13.622;2022-10-16T00:31:44;100112.31;;;14.00;68.99
68654;BME280;55636;51.108;13.622;2022-10-16T00:32:47;100114.28;;;14.00;69.12
68654;BME280;55636;51.108;13.622;2022-10-16T00:33:50;100106.75;;;14.00;69.21
68654;BME280;55636;51.108;13.622;2022-10-16T00:34:52;100103.16;;;14.00;69.37
68654;BME280;55636;51.108;13.622;2022-10-16T00:36:01;100116.22;;;13.99;69.46
68654;BME280;55636;51.108;13.622;2022-10-16T00:37:06;100118.72;;;14.01;69.17
68654;BME280;55636;51.108;13.622;2022-10-16T00:38:09;100122.59;;;14.00;69.31
68654;BME280;55636;51.108;13.622;2022-10-16T00:39:11;100119.00;;;13.99;69.53
68654;BME280;55636;51.108;13.622;2022-10-16T00:40:14;100125.38;;;14.00;69.71
68654;BME280;55636;51.108;13.622;2022-10-16T00:41:19;100123.72;;;13.99;69.65
68654;BME280;55636;51.108;13.622;2022-10-16T00:42:22;100119.00;;;13.99;69.74
68654;BME280;55636;51.108;13.622;2022-10-16T00:45:47;100122.59;;;14.00;69.70
68654;BME280;55636;51.108;13.622;2022-10-16T00:46:50;100123.41;;;14.00;69.53
68654;BME280;55636;51.108;13.622;2022-10-16T00:47:54;100127.84;;;14.02;69.62
68654;BME280;55636;51.108;13.622;2022-10-16T00:49:05;100130.63;;;14.02;69.47
68654;BME280;55636;51.108;13.622;2022-10-16T00:50:18;100126.75;;;14.03;69.33
68654;BME280;55636;51.108;13.622;2022-10-16T00:51:28;100128.41;;;14.04;69.48
68654;BME280;55636;51.108;13.622;2022-10-16T00:52:32;100133.97;;;14.04;69.38
68654;BME280;55636;51.108;13.622;2022-10-16T00:53:36;100134.78;;;14.04;69.55
68654;BME280;55636;51.108;13.622;2022-10-16T00:54:38;100134.78;;;14.04;69.80
68654;BME280;55636;51.108;13.622;2022-10-16T00:55:41;100134.78;;;14.04;69.56
68654;BME280;55636;51.108;13.622;2022-10-16T00:56:44;100128.13;;;14.05;69.56
68654;BME280;55636;51.108;13.622;2022-10-16T00:57:49;100133.66;;;14.05;69.94
68654;BME280;55636;51.108;13.622;2022-10-16T00:58:54;100130.88;;;14.05;69.98
68654;BME280;55636;51.108;13.622;2022-10-16T00:59:57;100126.16;;;14.06;70.04
68654;BME280;55636;51.108;13.622;2022-10-16T01:01:03;100123.38;;;14.06;69.71
68654;BME280;55636;51.108;13.622;2022-10-16T01:02:24;100127.00;;;14.06;69.96
68654;BME280;55636;51.108;13.622;2022-10-16T01:03:40;100130.59;;;14.07;69.66
68654;BME280;55636;51.108;13.622;2022-10-16T01:04:57;100134.19;;;14.07;69.66
68654;BME280;55636;51.108;13.622;2022-10-16T01:08:04;100129.47;;;14.08;69.46
68654;BME280;55636;51.108;13.622;2022-10-16T01:10:40;100131.97;;;14.09;69.60
68654;BME280;55636;51.108;13.622;2022-10-16T01:13:24;100134.75;;;14.09;69.55
68654;BME280;55636;51.108;13.622;2022-10-16T01:15:01;100135.84;;;14.08;69.66
68654;BME280;55636;51.108;13.622;2022-10-16T01:16:28;100139.47;;;14.09;69.65
68654;BME280;55636;51.108;13.622;2022-10-16T01:17:43;100140.31;;;14.09;69.65
68654;BME280;55636;51.108;13.622;2022-10-16T01:18:52;100137.53;;;14.09;69.26
68654;BME280;55636;51.108;13.622;2022-10-16T01:20:20;100130.31;;;14.08;69.59
68654;BME280;55636;51.108;13.622;2022-10-16T01:21:43;100136.69;;;14.09;69.76
68654;BME280;55636;51.108;13.622;2022-10-16T01:23:04;100131.97;;;14.09;69.51
68654;BME280;55636;51.108;13.622;2022-10-16T01:24:32;100134.19;;;14.07;69.71
68654;BME280;55636;51.108;13.622;2022-10-16T01:28:11;100139.75;;;14.07;69.81
68654;BME280;55636;51.108;13.622;2022-10-16T01:29:18;100141.72;;;14.07;69.63
68654;BME280;55636;51.108;13.622;2022-10-16T01:30:26;100144.47;;;14.07;69.58
68654;BME280;55636;51.108;13.622;2022-10-16T01:31:33;100148.06;;;14.07;69.72
68654;BME280;55636;51.108;13.622;2022-10-16T01:32:40;100150.84;;;14.07;69.73
68654;BME280;55636;51.108;13.622;2022-10-16T01:33:56;100160.84;;;14.08;69.70
68654;BME280;55636;51.108;13.622;2022-10-16T01:35:44;100152.00;;;14.06;69.55
68654;BME280;55636;51.108;13.622;2022-10-16T01:36:34;100152.53;;;14.08;69.70
68654;BME280;55636;51.108;13.622;2022-10-16T01:39:01;100155.00;;;14.10;70.06
68654;BME280;55636;51.108;13.622;2022-10-16T01:40:07;100150.28;;;14.10;69.71
68654;BME280;55636;51.108;13.622;2022-10-16T01:41:12;100155.00;;;14.10;69.88
68654;BME280;55636;51.108;13.622;2022-10-16T01:42:21;100159.44;;;14.11;69.68
68654;BME280;55636;51.108;13.622;2022-10-16T01:43:33;100147.50;;;14.10;69.89
68654;BME280;55636;51.108;13.622;2022-10-16T01:44:39;100153.59;;;14.12;69.91
68654;BME280;55636;51.108;13.622;2022-10-16T01:45:46;100141.97;;;14.10;69.62
68654;BME280;55636;51.108;13.622;2022-10-16T01:46:50;100138.06;;;14.11;69.90
68654;BME280;55636;51.108;13.622;2022-10-16T01:47:54;100141.66;;;14.12;69.93
68654;BME280;55636;51.108;13.622;2022-10-16T01:49:01;100135.28;;;14.11;70.05
68654;BME280;55636;51.108;13.622;2022-10-16T01:50:05;100134.16;;;14.12;69.74
68654;BME280;55636;51.108;13.622;2022-10-16T01:51:12;100130.56;;;14.12;69.79
68654;BME280;55636;51.108;13.622;2022-10-16T01:52:18;100131.38;;;14.12;70.00
68654;BME280;55636;51.108;13.622;2022-10-16T01:53:23;100129.44;;;14.13;70.12
68654;BME280;55636;51.108;13.622;2022-10-16T01:54:27;100135.00;;;14.13;70.02
68654;BME280;55636;51.108;13.622;2022-10-16T01:55:36;100138.59;;;14.13;69.69
68654;BME280;55636;51.108;13.622;2022-10-16T01:56:40;100138.28;;;14.15;69.64
68654;BME280;55636;51.108;13.622;2022-10-16T01:57:46;100135.81;;;14.13;69.85
68654;BME280;55636;51.108;13.622;2022-10-16T01:59:05;100138.28;;;14.15;69.84
68654;BME280;55636;51.108;13.622;2022-10-16T02:00:10;100144.69;;;14.15;69.88
68654;BME280;55636;51.108;13.622;2022-10-16T02:01:15;100135.25;;;14.16;69.60
68654;BME280;55636;51.108;13.622;2022-10-16T02:02:20;100134.41;;;14.16;69.51
68654;BME280;55636;51.108;13.622;2022-10-16T02:03:24;100143.59;;;14.16;69.67
68654;BME280;55636;51.108;13.622;2022-10-16T02:04:28;100138.84;;;14.17;69.60
68654;BME280;55636;51.108;13.622;2022-10-16T02:05:37;100145.22;;;14.18;69.69
68654;BME280;55636;51.108;13.622;2022-10-16T02:06:42;100154.69;;;14.16;69.48
68654;BME280;55636;51.108;13.622;2022-10-16T02:07:45;100142.75;;;14.16;69.63
68654;BME280;55636;51.108;13.622;2022-10-16T02:08:47;100145.53;;;14.16;69.61
68654;BME280;55636;51.108;13.622;2022-10-16T02:09:49;100145.53;;;14.16;69.60
68654;BME280;55636;51.108;13.622;2022-10-16T02:10:52;100150.78;;;14.18;69.59
68654;BME280;55636;51.108;13.622;2022-10-16T02:11:56;100142.44;;;14.18;69.60
68654;BME280;55636;51.108;13.622;2022-10-16T02:13:06;100156.34;;;14.18;69.85
68654;BME280;55636;51.108;13.622;2022-10-16T02:14:13;100146.38;;;14.16;69.65
68654;BME280;55636;51.108;13.622;2022-10-16T02:15:15;100163.84;;;14.17;69.64
68654;BME280;55636;51.108;13.622;2022-10-16T02:16:18;100157.47;;;14.16;69.40
68654;BME280;55636;51.108;13.622;2022-10-16T02:17:20;100162.19;;;14.16;69.71
68654;BME280;55636;51.108;13.622;2022-10-16T02:18:23;100161.06;;;14.17;69.37
68654;BME280;55636;51.108;13.622;2022-10-16T02:19:28;100158.28;;;14.17;69.53
68654;BME280;55636;51.108;13.622;2022-10-16T02:20:36;100156.34;;;14.18;69.59
68654;BME280;55636;51.108;13.622;2022-10-16T02:21:53;100157.19;;;14.18;69.55
68654;BME280;55636;51.108;13.622;2022-10-16T02:22:56;100158.84;;;14.19;69.60
68654;BME280;55636;51.108;13.622;2022-10-16T02:25:31;100155.78;;;14.21;69.23
68654;BME280;55636;51.108;13.622;2022-10-16T02:27:22;100160.47;;;14.20;69.16
68654;BME280;55636;51.108;13.622;2022-10-16T02:28:25;100160.47;;;14.20;69.25
68654;BME280;55636;51.108;13.622;2022-10-16T02:29:30;100160.47;;;14.20;69.24
68654;BME280;55636;51.108;13.622;2022-10-16T02:30:40;100153.00;;;14.21;69.08
68654;BME280;55636;51.108;13.622;2022-10-16T02:31:47;100157.44;;;14.22;69.55
68654;BME280;55636;51.108;13.622;2022-10-16T02:32:53;100153.81;;;14.21;69.18
68654;BME280;55636;51.108;13.622;2022-10-16T02:33:58;100162.16;;;14.21;69.49
68654;BME280;55636;51.108;13.622;2022-10-16T02:35:01;100155.78;;;14.21;69.28
68654;BME280;55636;51.108;13.622;2022-10-16T02:36:04;100158.56;;;14.21;69.60
68654;BME280;55636;51.108;13.622;2022-10-16T02:37:07;100162.16;;;14.21;69.49
68654;BME280;55636;51.108;13.622;2022-10-16T02:38:15;100162.16;;;14.21;69.42
68654;BME280;55636;51.108;13.622;2022-10-16T02:39:19;100166.03;;;14.20;69.31
68654;BME280;55636;51.108;13.622;2022-10-16T02:40:22;100164.09;;;14.21;69.33
68654;BME280;55636;51.108;13.622;2022-10-16T02:41:26;100176.88;;;14.22;69.34
68654;BME280;55636;51.108;13.622;2022-10-16T02:42:36;100174.09;;;14.22;69.62
68654;BME280;55636;51.108;13.622;2022-10-16T02:43:38;100173.56;;;14.20;69.39
68654;BME280;55636;51.108;13.622;2022-10-16T02:44:44;100169.66;;;14.21;69.64
68654;BME280;55636;51.108;13.622;2022-10-16T02:45:46;100169.66;;;14.21;69.71
68654;BME280;55636;51.108;13.622;2022-10-16T02:46:51;100170.47;;;14.21;69.50
68654;BME280;55636;51.108;13.622;2022-10-16T02:47:53;100182.44;;;14.22;69.56
68654;BME280;55636;51.108;13.622;2022-10-16T02:48:55;100167.69;;;14.21;69.67
68654;BME280;55636;51.108;13.622;2022-10-16T02:49:57;100161.84;;;14.23;69.51
68654;BME280;55636;51.108;13.622;2022-10-16T02:50:59;100158.25;;;14.22;69.46
68654;BME280;55636;51.108;13.622;2022-10-16T02:52:02;100162.69;;;14.23;69.65
68654;BME280;55636;51.108;13.622;2022-10-16T02:53:04;100152.41;;;14.24;69.72
68654;BME280;55636;51.108;13.622;2022-10-16T02:54:07;100148.50;;;14.25;69.47
68654;BME280;55636;51.108;13.622;2022-10-16T02:55:09;100160.44;;;14.25;69.68
68654;BME280;55636;51.108;13.622;2022-10-16T02:56:11;100145.72;;;14.25;69.53
68654;BME280;55636;51.108;13.622;2022-10-16T02:57:14;100144.63;;;14.26;69.49
68654;BME280;55636;51.108;13.622;2022-10-16T02:58:16;100148.22;;;14.26;69.52
68654;BME280;55636;51.108;13.622;2022-10-16T02:59:19;100140.69;;;14.27;69.54
68654;BME280;55636;51.108;13.622;2022-10-16T03:00:21;100147.91;;;14.28;69.69
68654;BME280;55636;51.108;13.622;2022-10-16T03:01:24;100144.03;;;14.29;69.93
68654;BME280;55636;51.108;13.622;2022-10-16T03:02:27;100146.81;;;14.29;69.80
68654;BME280;55636;51.108;13.622;2022-10-16T03:03:29;100140.13;;;14.30;69.79
68654;BME280;55636;51.108;13.622;2022-10-16T03:04:31;100142.91;;;14.30;69.99
68654;BME280;55636;51.108;13.622;2022-10-16T03:05:33;100151.25;;;14.30;69.94
68654;BME280;55636;51.108;13.622;2022-10-16T03:06:36;100149.28;;;14.30;69.87
68654;BME280;55636;51.108;13.622;2022-10-16T03:07:38;100153.72;;;14.31;69.87
68654;BME280;55636;51.108;13.622;2022-10-16T03:08:40;100148.16;;;14.31;69.80
68654;BME280;55636;51.108;13.622;2022-10-16T03:09:43;100152.91;;;14.31;69.88
68654;BME280;55636;51.108;13.622;2022-10-16T03:10:45;100154.53;;;14.32;70.09
68654;BME280;55636;51.108;13.622;2022-10-16T03:11:47;100147.88;;;14.33;69.72
68654;BME280;55636;51.108;13.622;2022-10-16T03:12:49;100161.78;;;14.33;69.80
68654;BME280;55636;51.108;13.622;2022-10-16T03:13:52;100159.84;;;14.33;69.90
68654;BME280;55636;51.108;13.622;2022-10-16T03:14:55;100165.91;;;14.36;69.77
68654;BME280;55636;51.108;13.622;2022-10-16T03:16:01;100175.38;;;14.35;70.13
68654;BME280;55636;51.108;13.622;2022-10-16T03:17:03;100173.44;;;14.35;69.86
68654;BME280;55636;51.108;13.622;2022-10-16T03:18:14;100172.31;;;14.36;69.98
68654;BME280;55636;51.108;13.622;2022-10-16T03:19:17;100170.34;;;14.37;69.94
68654;BME280;55636;51.108;13.622;2022-10-16T03:20:19;100167.59;;;14.37;69.88
68654;BME280;55636;51.108;13.622;2022-10-16T03:21:24;100162.84;;;14.37;69.99
68654;BME280;55636;51.108;13.622;2022-10-16T03:22:27;100165.63;;;14.37;69.90
68654;BME280;55636;51.108;13.622;2022-10-16T03:23:29;100160.91;;;14.38;69.89
68654;BME280;55636;51.108;13.622;2022-10-16T03:24:51;100172.84;;;14.38;69.85
68654;BME280;55636;51.108;13.622;2022-10-16T03:25:54;100168.94;;;14.39;69.83
68654;BME280;55636;51.108;13.622;2022-10-16T03:26:56;100169.75;;;14.40;69.69
68654;BME280;55636;51.108;13.622;2022-10-16T03:27:59;100167.84;;;14.40;69.99
68654;BME280;55636;51.108;13.622;2022-10-16T03:29:02;100171.44;;;14.41;69.92
68654;BME280;55636;51.108;13.622;2022-10-16T03:30:05;100167.84;;;14.40;69.94
68654;BME280;55636;51.108;13.622;2022-10-16T03:31:08;100173.41;;;14.40;69.92
68654;BME280;55636;51.108;13.622;2022-10-16T03:32:10;100175.31;;;14.40;69.78
68654;BME280;55636;51.108;13.622;2022-10-16T03:33:13;100173.41;;;14.40;70.10
68654;BME280;55636;51.108;13.622;2022-10-16T03:34:15;100172.28;;;14.41;69.68
68654;BME280;55636;51.108;13.622;2022-10-16T03:35:17;100165.88;;;14.41;69.97
68654;BME280;55636;51.108;13.622;2022-10-16T03:36:19;100161.16;;;14.41;69.85
68654;BME280;55636;51.108;13.622;2022-10-16T03:37:22;100161.97;;;14.42;69.61
68654;BME280;55636;51.108;13.622;2022-10-16T03:38:25;100167.53;;;14.42;69.84
68654;BME280;55636;51.108;13.622;2022-10-16T03:39:27;100162.81;;;14.42;69.70
68654;BME280;55636;51.108;13.622;2022-10-16T03:40:29;100162.81;;;14.42;69.63
68654;BME280;55636;51.108;13.622;2022-10-16T03:41:34;100171.97;;;14.43;69.60
68654;BME280;55636;51.108;13.622;2022-10-16T03:42:39;100169.50;;;14.41;69.79
68654;BME280;55636;51.108;13.622;2022-10-16T03:43:41;100173.09;;;14.42;69.84
68654;BME280;55636;51.108;13.622;2022-10-16T03:44:43;100172.28;;;14.41;70.03
68654;BME280;55636;51.108;13.622;2022-10-16T03:45:46;100170.31;;;14.42;69.76
68654;BME280;55636;51.108;13.622;2022-10-16T03:46:48;100169.22;;;14.43;69.93
68654;BME280;55636;51.108;13.622;2022-10-16T03:47:50;100175.56;;;14.43;69.90
68654;BME280;55636;51.108;13.622;2022-10-16T03:48:52;100177.53;;;14.43;69.82
68654;BME280;55636;51.108;13.622;2022-10-16T03:49:55;100181.13;;;14.43;69.64
68654;BME280;55636;51.108;13.622;2022-10-16T03:50:57;100177.53;;;14.43;69.75
68654;BME280;55636;51.108;13.622;2022-10-16T03:51:59;100195.88;;;14.44;69.85
68654;BME280;55636;51.108;13.622;2022-10-16T03:53:03;100187.53;;;14.44;69.82
68654;BME280;55636;51.108;13.622;2022-10-16T03:54:05;100186.69;;;14.43;69.59
68654;BME280;55636;51.108;13.622;2022-10-16T03:55:08;100181.44;;;14.42;69.99
68654;BME280;55636;51.108;13.622;2022-10-16T03:56:10;100187.00;;;14.42;69.95
68654;BME280;55636;51.108;13.622;2022-10-16T03:57:12;100188.09;;;14.41;70.08
68654;BME280;55636;51.108;13.622;2022-10-16T03:58:17;100183.41;;;14.41;69.83
68654;BME280;55636;51.108;13.622;2022-10-16T03:59:22;100196.16;;;14.42;69.92
68654;BME280;55636;51.108;13.622;2022-10-16T04:00:24;100195.03;;;14.43;69.56
68654;BME280;55636;51.108;13.622;2022-10-16T04:01:26;100193.38;;;14.42;69.80
68654;BME280;55636;51.108;13.622;2022-10-16T04:02:32;100186.69;;;14.43;69.68
68654;BME280;55636;51.108;13.622;2022-10-16T04:03:34;100181.97;;;14.44;69.91
68654;BME280;55636;51.108;13.622;2022-10-16T04:04:36;100185.03;;;14.42;69.69
68654;BME280;55636;51.108;13.622;2022-10-16T04:05:38;100187.00;;;14.42;69.80
68654;BME280;55636;51.108;13.622;2022-10-16T04:06:41;100193.38;;;14.42;69.77
68654;BME280;55636;51.108;13.622;2022-10-16T04:07:43;100197.81;;;14.43;69.59
68654;BME280;55636;51.108;13.622;2022-10-16T04:08:46;100193.38;;;14.42;69.99
68654;BME280;55636;51.108;13.622;2022-10-16T04:09:48;100195.88;;;14.44;69.74
68654;BME280;55636;51.108;13.622;2022-10-16T04:10:51;100198.66;;;14.44;69.74
68654;BME280;55636;51.108;13.622;2022-10-16T04:11:54;100200.28;;;14.45;69.65
68654;BME280;55636;51.108;13.622;2022-10-16T04:12:56;100196.69;;;14.44;69.88
68654;BME280;55636;51.108;13.622;2022-10-16T04:13:58;100207.81;;;14.44;69.97
68654;BME280;55636;51.108;13.622;2022-10-16T04:15:00;100207.00;;;14.44;69.67
68654;BME280;55636;51.108;13.622;2022-10-16T04:16:03;100205.84;;;14.45;69.41
68654;BME280;55636;51.108;13.622;2022-10-16T04:17:05;100202.25;;;14.44;69.62
68654;BME280;55636;51.108;13.622;2022-10-16T04:18:08;100206.69;;;14.45;69.77
68654;BME280;55636;51.108;13.622;2022-10-16T04:19:13;100210.59;;;14.44;69.51
68654;BME280;55636;51.108;13.622;2022-10-16T04:20:15;100217.81;;;14.45;69.84
68654;BME280;55636;51.108;13.622;2022-10-16T04:21:18;100216.16;;;14.44;69.71
68654;BME280;55636;51.108;13.622;2022-10-16T04:22:21;100214.19;;;14.45;69.85
68654;BME280;55636;51.108;13.622;2022-10-16T04:23:23;100213.06;;;14.46;69.75
68654;BME280;55636;51.108;13.622;2022-10-16T04:24:25;100215.03;;;14.45;69.70
68654;BME280;55636;51.108;13.622;2022-10-16T04:25:28;100208.38;;;14.46;69.38
68654;BME280;55636;51.108;13.622;2022-10-16T04:26:30;100201.16;;;14.45;69.84
68654;BME280;55636;51.108;13.622;2022-10-16T04:27:32;100201.97;;;14.46;69.62
68654;BME280;55636;51.108;13.622;2022-10-16T04:28:35;100201.97;;;14.46;69.49
68654;BME280;55636;51.108;13.622;2022-10-16T04:29:37;100208.38;;;14.46;69.77
68654;BME280;55636;51.108;13.622;2022-10-16T04:30:39;100214.19;;;14.45;69.49
68654;BME280;55636;51.108;13.622;2022-10-16T04:31:41;100209.47;;;14.45;69.74
68654;BME280;55636;51.108;13.622;2022-10-16T04:32:48;100215.03;;;14.45;69.43
68654;BME280;55636;51.108;13.622;2022-10-16T04:33:50;100219.47;;;14.46;69.61
68654;BME280;55636;51.108;13.622;2022-10-16T04:34:53;100225.03;;;14.46;69.49
68654;BME280;55636;51.108;13.622;2022-10-16T04:35:59;100223.38;;;14.45;69.35
68654;BME280;55636;51.108;13.622;2022-10-16T04:37:02;100224.19;;;14.46;69.54
68654;BME280;55636;51.108;13.622;2022-10-16T04:38:04;100225.03;;;14.46;69.66
68654;BME280;55636;51.108;13.622;2022-10-16T04:39:06;100225.03;;;14.46;69.55
68654;BME280;55636;51.108;13.622;2022-10-16T04:40:09;100220.31;;;14.47;69.45
68654;BME280;55636;51.108;13.622;2022-10-16T04:41:11;100215.03;;;14.45;69.58
68654;BME280;55636;51.108;13.622;2022-10-16T04:42:13;100218.63;;;14.46;69.42
68654;BME280;55636;51.108;13.622;2022-10-16T04:43:16;100213.06;;;14.46;69.67
68654;BME280;55636;51.108;13.622;2022-10-16T04:44:18;100218.63;;;14.46;69.51
68654;BME280;55636;51.108;13.622;2022-10-16T04:45:21;100220.31;;;14.47;69.56
68654;BME280;55636;51.108;13.622;2022-10-16T04:46:23;100218.63;;;14.46;69.31
68654;BME280;55636;51.108;13.622;2022-10-16T04:47:32;100209.19;;;14.47;69.56
68654;BME280;55636;51.108;13.622;2022-10-16T04:48:35;100210.00;;;14.47;69.30
68654;BME280;55636;51.108;13.622;2022-10-16T04:49:37;100211.97;;;14.47;69.62
68654;BME280;55636;51.108;13.622;2022-10-16T04:50:39;100210.28;;;14.46;69.66
68654;BME280;55636;51.108;13.622;2022-10-16T04:51:41;100207.50;;;14.46;69.70
68654;BME280;55636;51.108;13.622;2022-10-16T04:52:43;100213.06;;;14.46;69.46
68654;BME280;55636;51.108;13.622;2022-10-16T04:53:46;100214.19;;;14.45;69.54
68654;BME280;55636;51.108;13.622;2022-10-16T04:54:48;100209.47;;;14.45;69.85
68654;BME280;55636;51.108;13.622;2022-10-16T04:55:52;100216.97;;;14.45;69.77
68654;BME280;55636;51.108;13.622;2022-10-16T04:56:54;100207.50;;;14.46;69.66
68654;BME280;55636;51.108;13.622;2022-10-16T04:57:57;100217.81;;;14.45;69.61
68654;BME280;55636;51.108;13.622;2022-10-16T04:58:59;100215.84;;;14.46;69.72
68654;BME280;55636;51.108;13.622;2022-10-16T05:00:01;100218.63;;;14.46;69.75
68654;BME280;55636;51.108;13.622;2022-10-16T05:01:05;100216.97;;;14.45;69.70
68654;BME280;55636;51.108;13.622;2022-10-16T05:02:07;100223.38;;;14.45;69.57
68654;BME280;55636;51.108;13.622;2022-10-16T05:03:09;100225.84;;;14.47;69.63
68654;BME280;55636;51.108;13.622;2022-10-16T05:04:12;100218.94;;;14.44;69.94
68654;BME280;55636;51.108;13.622;2022-10-16T05:05:17;100232.81;;;14.44;69.83
68654;BME280;55636;51.108;13.622;2022-10-16T05:06:21;100224.47;;;14.44;69.85
68654;BME280;55636;51.108;13.622;2022-10-16T05:07:23;100222.53;;;14.45;69.93
68654;BME280;55636;51.108;13.622;2022-10-16T05:08:26;100225.31;;;14.45;69.78
68654;BME280;55636;51.108;13.622;2022-10-16T05:09:28;100216.97;;;14.45;70.06
68654;BME280;55636;51.108;13.622;2022-10-16T05:10:30;100221.72;;;14.44;69.70
68654;BME280;55636;51.108;13.622;2022-10-16T05:11:33;100212.25;;;14.45;69.92
68654;BME280;55636;51.108;13.622;2022-10-16T05:12:35;100214.19;;;14.45;70.08
68654;BME280;55636;51.108;13.622;2022-10-16T05:13:37;100219.75;;;14.45;69.97
68654;BME280;55636;51.108;13.622;2022-10-16T05:14:39;100228.09;;;14.45;70.10
68654;BME280;55636;51.108;13.622;2022-10-16T05:15:42;100234.50;;;14.45;69.88
68654;BME280;55636;51.108;13.622;2022-10-16T05:16:44;100230.03;;;14.44;69.88
68654;BME280;55636;51.108;13.622;2022-10-16T05:17:52;100232.53;;;14.46;70.02
68654;BME280;55636;51.108;13.622;2022-10-16T05:18:54;100237.28;;;14.45;70.06
68654;BME280;55636;51.108;13.622;2022-10-16T05:20:11;100235.59;;;14.44;69.92
68654;BME280;55636;51.108;13.622;2022-10-16T05:21:14;100242.81;;;14.45;70.02
68654;BME280;55636;51.108;13.622;2022-10-16T05:22:16;100238.38;;;14.44;69.75
68654;BME280;55636;51.108;13.622;2022-10-16T05:23:18;100249.50;;;14.44;69.81
68654;BME280;55636;51.108;13.622;2022-10-16T05:24:20;100249.50;;;14.44;69.79
68654;BME280;55636;51.108;13.622;2022-10-16T05:25:25;100255.88;;;14.45;70.06
68654;BME280;55636;51.108;13.622;2022-10-16T05:26:28;100253.94;;;14.45;69.78
68654;BME280;55636;51.108;13.622;2022-10-16T05:27:31;100255.88;;;14.45;69.87
68654;BME280;55636;51.108;13.622;2022-10-16T05:28:33;100262.56;;;14.44;70.00
68654;BME280;55636;51.108;13.622;2022-10-16T05:29:36;100250.31;;;14.45;69.98
68654;BME280;55636;51.108;13.622;2022-10-16T05:30:39;100252.28;;;14.44;69.81
68654;BME280;55636;51.108;13.622;2022-10-16T05:31:41;100251.16;;;14.45;69.72
68654;BME280;55636;51.108;13.622;2022-10-16T05:32:50;100247.53;;;14.45;69.75
68654;BME280;55636;51.108;13.622;2022-10-16T05:34:00;100232.81;;;14.44;69.68
68654;BME280;55636;51.108;13.622;2022-10-16T05:35:03;100227.25;;;14.44;70.17
68654;BME280;55636;51.108;13.622;2022-10-16T05:36:11;100232.00;;;14.44;69.67
68654;BME280;55636;51.108;13.622;2022-10-16T05:37:13;100233.94;;;14.43;69.87
68654;BME280;55636;51.108;13.622;2022-10-16T05:38:16;100232.81;;;14.44;69.93
68654;BME280;55636;51.108;13.622;2022-10-16T05:39:19;100232.81;;;14.44;69.88
68654;BME280;55636;51.108;13.622;2022-10-16T05:40:22;100232.81;;;14.44;69.89
68654;BME280;55636;51.108;13.622;2022-10-16T05:41:24;100237.56;;;14.44;69.76
68654;BME280;55636;51.108;13.622;2022-10-16T05:42:28;100236.72;;;14.43;69.83
68654;BME280;55636;51.108;13.622;2022-10-16T05:43:34;100240.34;;;14.44;69.69
68654;BME280;55636;51.108;13.622;2022-10-16T05:44:36;100243.13;;;14.44;69.68
68654;BME280;55636;51.108;13.622;2022-10-16T05:45:38;100242.28;;;14.43;69.57
68654;BME280;55636;51.108;13.622;2022-10-16T05:46:41;100243.38;;;14.42;69.64